Shurei 2 — JD4209 — position and weather

sailwx.info

Track history (hours):
 
Tides and Currents Weather Stations Pressure Air Temp Water Temp Dewpoint Dewpoint Depression Visibility Wind Speed Wind Dir Waves Ship Positions

Shurei 2

Last reported at 2017-Sep-21 15:10 UTC. Time now 2017-Sep-22 09:47 UTC.
Position N 33°58' E 134°52'.

Length 182 m; draft 6.6 m.

Type: Cargo ship. MMSI: 431010021.

Date/timePositionNaut miles runAvg speedWind from/ knotsBaromVisibWave heightAir tempDewpointWater temp
2017-Sep-21 15:10N 33°58' E 134°52'320.5
2017-Sep-21 15:00N 34°01' E 134°54'1020.6
2017-Sep-21 14:30N 34°11' E 134°57'1019.7
2017-Sep-21 14:01N 34°21' E 134°60'1019.6
2017-Sep-21 13:31N 34°28' E 135°08'1020.0
2017-Sep-21 13:01N 34°34' E 135°17'714.2
2017-Sep-21 12:30N 34°37' E 135°25'1 1.4
2017-Sep-21 11:56N 34°37' E 135°26'0 0.0
2017-Sep-21 11:26N 34°37' E 135°26'0 0.0
2017-Sep-21 10:50N 34°37' E 135°26'0 0.0
2017-Sep-21 10:26N 34°37' E 135°26'0 0.0
2017-Sep-21 09:50N 34°37' E 135°26'0 0.0
2017-Sep-21 09:26N 34°37' E 135°26'0 0.0
2017-Sep-21 08:56N 34°37' E 135°26'0 0.0
2017-Sep-21 08:26N 34°37' E 135°26'0 0.0
2017-Sep-21 07:54N 34°37' E 135°26'1 2.8
2017-Sep-21 07:30N 34°37' E 135°24'714.3
2017-Sep-21 07:00N 34°33' E 135°18'1019.4
2017-Sep-21 06:30N 34°26' E 135°09'1019.3
2017-Sep-21 06:00N 34°19' E 135°01'817.0
2017-Sep-21 05:30N 34°11' E 134°59'1019.6
2017-Sep-21 05:00N 34°01' E 134°59'21217.0
2017-Sep-20 16:31N 34°41' E 139°11'418.0
2017-Sep-20 16:17N 34°45' E 139°14'717.4
2017-Sep-20 15:54N 34°50' E 139°18'616.3
2017-Sep-20 15:30N 34°55' E 139°24'918.2
2017-Sep-20 15:00N 35°01' E 139°32'1817.5
2017-Sep-20 14:00N 35°14' E 139°46'612.4
2017-Sep-20 13:31N 35°19' E 139°43'815.9
2017-Sep-20 13:01N 35°27' E 139°47'714.3
2017-Sep-20 12:30N 35°34' E 139°50'4 7.1
2017-Sep-20 11:53N 35°37' E 139°47'0 0.0
2017-Sep-20 11:29N 35°37' E 139°47'0 0.0
2017-Sep-20 10:53N 35°37' E 139°47'0 0.0
2017-Sep-20 10:29N 35°37' E 139°47'0 0.0
2017-Sep-20 09:59N 35°37' E 139°47'0 0.0
2017-Sep-20 09:29N 35°37' E 139°47'0 0.0
2017-Sep-20 08:59N 35°37' E 139°47'0 0.0
2017-Sep-20 08:29N 35°37' E 139°47'0 0.0
2017-Sep-20 07:56N 35°37' E 139°47'0 0.0
2017-Sep-20 07:29N 35°37' E 139°47'0 0.0
2017-Sep-20 06:59N 35°37' E 139°47'0 0.0
2017-Sep-20 06:30N 35°37' E 139°47'4 7.4
2017-Sep-20 06:00N 35°34' E 139°49'510.6
2017-Sep-20 05:31N 35°29' E 139°52'816.7
2017-Sep-20 05:01N 35°26' E 139°43'3 5.7
2017-Sep-20 04:25N 35°28' E 139°39'0 0.0
2017-Sep-20 03:58N 35°28' E 139°39'0 0.0
2017-Sep-20 03:28N 35°28' E 139°39'0 0.0
2017-Sep-20 02:58N 35°28' E 139°39'0 0.0
2017-Sep-20 02:28N 35°28' E 139°39'0 0.0
2017-Sep-20 01:58N 35°28' E 139°39'0 0.0
2017-Sep-20 01:28N 35°28' E 139°39'0 0.0
2017-Sep-20 00:58N 35°28' E 139°39'0 0.0
2017-Sep-20 00:28N 35°28' E 139°39'0 0.0
2017-Sep-19 23:58N 35°28' E 139°39'0 0.0
2017-Sep-19 23:30N 35°28' E 139°39'1 1.1
2017-Sep-19 23:00N 35°27' E 139°40'3 6.0
2017-Sep-19 22:30N 35°26' E 139°43'510.8
2017-Sep-19 22:00N 35°20' E 139°43'612.5
2017-Sep-19 21:30N 35°15' E 139°47'611.9
2017-Sep-19 21:00N 35°09' E 139°47'918.0
2017-Sep-19 20:30N 35°01' E 139°43'1021.1
2017-Sep-19 20:00N 34°55' E 139°32'  
2017-Sep-14 14:20N 33°58' E 134°53'620.3
2017-Sep-14 14:00N 34°05' E 134°55'1020.9
2017-Sep-14 13:30N 34°15' E 134°58'1019.9
2017-Sep-14 13:00N 34°24' E 135°03'1020.5
2017-Sep-14 12:30N 34°31' E 135°12'918.6
2017-Sep-14 12:00N 34°37' E 135°21'4 8.1
2017-Sep-14 11:30N 34°37' E 135°26'0 0.0
2017-Sep-14 10:48N 34°37' E 135°26'0 0.0
2017-Sep-14 10:30N 34°37' E 135°26'0 0.0
2017-Sep-14 10:00N 34°37' E 135°26'0 0.0
2017-Sep-14 08:42N 34°37' E 135°26'0 0.0
2017-Sep-14 08:30N 34°37' E 135°26'0 0.0
2017-Sep-14 08:00N 34°37' E 135°26'0 0.0
2017-Sep-14 07:30N 34°37' E 135°26'0 0.0
2017-Sep-14 07:00N 34°37' E 135°26'0 0.0
2017-Sep-14 06:30N 34°37' E 135°26'0 0.0
2017-Sep-14 06:00N 34°37' E 135°26'1 1.2
2017-Sep-14 05:30N 34°37' E 135°25'713.1
2017-Sep-14 05:00N 34°34' E 135°18'1020.4
2017-Sep-14 04:30N 34°27' E 135°09'1121.1
2017-Sep-14 04:00N 34°19' E 135°01'1020.2
2017-Sep-14 03:30N 34°09' E 134°59'21515.5
2017-Sep-13 13:39N 34°49' E 139°15'318.8
2017-Sep-13 13:30N 34°51' E 139°17'1019.3
2017-Sep-13 13:00N 34°57' E 139°26'1019.5
2017-Sep-13 12:30N 35°03' E 139°36'1019.1
2017-Sep-13 12:00N 35°09' E 139°45'713.7
2017-Sep-13 11:30N 35°16' E 139°46'612.2
2017-Sep-13 11:01N 35°21' E 139°43'917.9
2017-Sep-13 10:31N 35°28' E 139°49'713.2
2017-Sep-13 10:00N 35°35' E 139°48'2 4.9
2017-Sep-13 09:30N 35°37' E 139°47'0 0.0
2017-Sep-13 08:57N 35°37' E 139°47'0 0.0
2017-Sep-13 08:24N 35°37' E 139°47'0 0.0
2017-Sep-13 07:51N 35°37' E 139°47'0 0.0
2017-Sep-13 07:30N 35°37' E 139°47'0 0.0
2017-Sep-13 06:57N 35°37' E 139°47'0 0.0
2017-Sep-13 06:27N 35°37' E 139°47'0 0.0
2017-Sep-13 05:51N 35°37' E 139°47'0 0.0
2017-Sep-13 05:21N 35°37' E 139°47'0 0.0
2017-Sep-13 04:51N 35°37' E 139°47'0 0.0
2017-Sep-13 04:27N 35°37' E 139°47'0 0.0
2017-Sep-13 03:57N 35°37' E 139°47'0 0.0
2017-Sep-13 03:30N 35°37' E 139°47'0 0.0
2017-Sep-13 02:57N 35°37' E 139°47'0 0.0
2017-Sep-13 02:27N 35°37' E 139°47'0 0.0
2017-Sep-13 01:57N 35°37' E 139°47'0 0.0
2017-Sep-13 01:30N 35°37' E 139°47'0 0.0
2017-Sep-13 01:00N 35°37' E 139°47'0 0.0
2017-Sep-13 00:27N 35°37' E 139°47'0 0.0
2017-Sep-13 00:00N 35°37' E 139°47'0 0.0
2017-Sep-12 20:06N 35°37' E 139°47'0 0.1
2017-Sep-12 20:00N 35°37' E 139°47'0 0.0
2017-Sep-12 19:30N 35°37' E 139°47'0 0.0
2017-Sep-12 18:57N 35°37' E 139°47'0 0.0
2017-Sep-12 18:30N 35°37' E 139°47'0 0.0
2017-Sep-12 18:00N 35°37' E 139°47'0 0.0
2017-Sep-12 17:30N 35°37' E 139°47'0 0.0
2017-Sep-12 17:00N 35°37' E 139°47'0 0.0
2017-Sep-12 16:28N 35°37' E 139°47'0 0.0
2017-Sep-12 15:58N 35°37' E 139°47'0 0.0
2017-Sep-12 15:28N 35°37' E 139°47'0 0.0
2017-Sep-12 14:55N 35°37' E 139°47'0 0.0
2017-Sep-12 14:28N 35°37' E 139°47'0 0.0
2017-Sep-12 13:55N 35°37' E 139°47'0 0.0
2017-Sep-12 13:28N 35°37' E 139°47'0 0.0
2017-Sep-12 12:58N 35°37' E 139°47'0 0.0
2017-Sep-12 12:28N 35°37' E 139°47'0 0.0
2017-Sep-12 11:58N 35°37' E 139°47'0 0.0
2017-Sep-12 11:28N 35°37' E 139°47'0 0.0
2017-Sep-12 10:58N 35°37' E 139°47'0 0.0
2017-Sep-12 10:28N 35°37' E 139°47'0 0.0
2017-Sep-12 09:58N 35°37' E 139°47'0 0.0
2017-Sep-12 09:22N 35°37' E 139°47'0 0.0
2017-Sep-12 08:55N 35°37' E 139°47'0 0.0
2017-Sep-12 08:28N 35°37' E 139°47'0 0.0
2017-Sep-12 07:58N 35°37' E 139°47'0 0.0
2017-Sep-12 07:28N 35°37' E 139°47'0 0.0
2017-Sep-12 06:58N 35°37' E 139°47'0 0.0
2017-Sep-12 06:28N 35°37' E 139°47'0 0.0
2017-Sep-12 05:52N 35°37' E 139°47'0 0.0
2017-Sep-12 05:28N 35°37' E 139°47'0 0.0
2017-Sep-12 04:58N 35°37' E 139°47'0 0.0
2017-Sep-12 04:28N 35°37' E 139°47'0 0.0
2017-Sep-12 03:58N 35°37' E 139°47'0 0.0
2017-Sep-12 03:28N 35°37' E 139°47'0 0.0
2017-Sep-12 02:58N 35°37' E 139°47'0 0.0
2017-Sep-12 01:10N 35°37' E 139°47'0 0.0
2017-Sep-12 00:22N 35°37' E 139°47'0 0.0
2017-Sep-11 23:59N 35°37' E 139°47'1 1.7
2017-Sep-11 23:30N 35°37' E 139°48'510.7
2017-Sep-11 23:00N 35°33' E 139°52'816.5
2017-Sep-11 22:30N 35°25' E 139°47'612.8
2017-Sep-11 22:00N 35°19' E 139°44'612.0
2017-Sep-11 21:30N 35°14' E 139°47'816.6
2017-Sep-11 21:00N 35°06' E 139°45'1019.6
2017-Sep-11 20:30N 34°59' E 139°36'  
Track history (hours):
 
Tides and Currents Weather Stations Pressure Air Temp Water Temp Dewpoint Dewpoint Depression Visibility Wind Speed Wind Dir Waves Ship Positions

Shurei 2

Last reported at 2017-Sep-21 15:10 UTC. Time now 2017-Sep-22 09:47 UTC.
Position N 33°58' E 134°52'.

Length 182 m; draft 6.6 m.

Type: Cargo ship. MMSI: 431010021.

Date/timePositionNaut miles runAvg speedWind from/ knotsBaromVisibWave heightAir tempDewpointWater temp
2017-Sep-21 15:10N 33°58' E 134°52'320.5
2017-Sep-21 15:00N 34°01' E 134°54'1020.6
2017-Sep-21 14:30N 34°11' E 134°57'1019.7
2017-Sep-21 14:01N 34°21' E 134°60'1019.6
2017-Sep-21 13:31N 34°28' E 135°08'1020.0
2017-Sep-21 13:01N 34°34' E 135°17'714.2
2017-Sep-21 12:30N 34°37' E 135°25'1 1.4
2017-Sep-21 11:56N 34°37' E 135°26'0 0.0
2017-Sep-21 11:26N 34°37' E 135°26'0 0.0
2017-Sep-21 10:50N 34°37' E 135°26'0 0.0
2017-Sep-21 10:26N 34°37' E 135°26'0 0.0
2017-Sep-21 09:50N 34°37' E 135°26'0 0.0
2017-Sep-21 09:26N 34°37' E 135°26'0 0.0
2017-Sep-21 08:56N 34°37' E 135°26'0 0.0
2017-Sep-21 08:26N 34°37' E 135°26'0 0.0
2017-Sep-21 07:54N 34°37' E 135°26'1 2.8
2017-Sep-21 07:30N 34°37' E 135°24'714.3
2017-Sep-21 07:00N 34°33' E 135°18'1019.4
2017-Sep-21 06:30N 34°26' E 135°09'1019.3
2017-Sep-21 06:00N 34°19' E 135°01'817.0
2017-Sep-21 05:30N 34°11' E 134°59'1019.6
2017-Sep-21 05:00N 34°01' E 134°59'21217.0
2017-Sep-20 16:31N 34°41' E 139°11'418.0
2017-Sep-20 16:17N 34°45' E 139°14'717.4
2017-Sep-20 15:54N 34°50' E 139°18'616.3
2017-Sep-20 15:30N 34°55' E 139°24'918.2
2017-Sep-20 15:00N 35°01' E 139°32'1817.5
2017-Sep-20 14:00N 35°14' E 139°46'612.4
2017-Sep-20 13:31N 35°19' E 139°43'815.9
2017-Sep-20 13:01N 35°27' E 139°47'714.3
2017-Sep-20 12:30N 35°34' E 139°50'4 7.1
2017-Sep-20 11:53N 35°37' E 139°47'0 0.0
2017-Sep-20 11:29N 35°37' E 139°47'0 0.0
2017-Sep-20 10:53N 35°37' E 139°47'0 0.0
2017-Sep-20 10:29N 35°37' E 139°47'0 0.0
2017-Sep-20 09:59N 35°37' E 139°47'0 0.0
2017-Sep-20 09:29N 35°37' E 139°47'0 0.0
2017-Sep-20 08:59N 35°37' E 139°47'0 0.0
2017-Sep-20 08:29N 35°37' E 139°47'0 0.0
2017-Sep-20 07:56N 35°37' E 139°47'0 0.0
2017-Sep-20 07:29N 35°37' E 139°47'0 0.0
2017-Sep-20 06:59N 35°37' E 139°47'0 0.0
2017-Sep-20 06:30N 35°37' E 139°47'4 7.4
2017-Sep-20 06:00N 35°34' E 139°49'510.6
2017-Sep-20 05:31N 35°29' E 139°52'816.7
2017-Sep-20 05:01N 35°26' E 139°43'3 5.7
2017-Sep-20 04:25N 35°28' E 139°39'0 0.0
2017-Sep-20 03:58N 35°28' E 139°39'0 0.0
2017-Sep-20 03:28N 35°28' E 139°39'0 0.0
2017-Sep-20 02:58N 35°28' E 139°39'0 0.0
2017-Sep-20 02:28N 35°28' E 139°39'0 0.0
2017-Sep-20 01:58N 35°28' E 139°39'0 0.0
2017-Sep-20 01:28N 35°28' E 139°39'0 0.0
2017-Sep-20 00:58N 35°28' E 139°39'0 0.0
2017-Sep-20 00:28N 35°28' E 139°39'0 0.0
2017-Sep-19 23:58N 35°28' E 139°39'0 0.0
2017-Sep-19 23:30N 35°28' E 139°39'1 1.1
2017-Sep-19 23:00N 35°27' E 139°40'3 6.0
2017-Sep-19 22:30N 35°26' E 139°43'510.8
2017-Sep-19 22:00N 35°20' E 139°43'612.5
2017-Sep-19 21:30N 35°15' E 139°47'611.9
2017-Sep-19 21:00N 35°09' E 139°47'918.0
2017-Sep-19 20:30N 35°01' E 139°43'1021.1
2017-Sep-19 20:00N 34°55' E 139°32'  
2017-Sep-14 14:20N 33°58' E 134°53'620.3
2017-Sep-14 14:00N 34°05' E 134°55'1020.9
2017-Sep-14 13:30N 34°15' E 134°58'1019.9
2017-Sep-14 13:00N 34°24' E 135°03'1020.5
2017-Sep-14 12:30N 34°31' E 135°12'918.6
2017-Sep-14 12:00N 34°37' E 135°21'4 8.1
2017-Sep-14 11:30N 34°37' E 135°26'0 0.0
2017-Sep-14 10:48N 34°37' E 135°26'0 0.0
2017-Sep-14 10:30N 34°37' E 135°26'0 0.0
2017-Sep-14 10:00N 34°37' E 135°26'0 0.0
2017-Sep-14 08:42N 34°37' E 135°26'0 0.0
2017-Sep-14 08:30N 34°37' E 135°26'0 0.0
2017-Sep-14 08:00N 34°37' E 135°26'0 0.0
2017-Sep-14 07:30N 34°37' E 135°26'0 0.0
2017-Sep-14 07:00N 34°37' E 135°26'0 0.0
2017-Sep-14 06:30N 34°37' E 135°26'0 0.0
2017-Sep-14 06:00N 34°37' E 135°26'1 1.2
2017-Sep-14 05:30N 34°37' E 135°25'713.1
2017-Sep-14 05:00N 34°34' E 135°18'1020.4
2017-Sep-14 04:30N 34°27' E 135°09'1121.1
2017-Sep-14 04:00N 34°19' E 135°01'1020.2
2017-Sep-14 03:30N 34°09' E 134°59'21515.5
2017-Sep-13 13:39N 34°49' E 139°15'318.8
2017-Sep-13 13:30N 34°51' E 139°17'1019.3
2017-Sep-13 13:00N 34°57' E 139°26'1019.5
2017-Sep-13 12:30N 35°03' E 139°36'1019.1
2017-Sep-13 12:00N 35°09' E 139°45'713.7
2017-Sep-13 11:30N 35°16' E 139°46'612.2
2017-Sep-13 11:01N 35°21' E 139°43'917.9
2017-Sep-13 10:31N 35°28' E 139°49'713.2
2017-Sep-13 10:00N 35°35' E 139°48'2 4.9
2017-Sep-13 09:30N 35°37' E 139°47'0 0.0
2017-Sep-13 08:57N 35°37' E 139°47'0 0.0
2017-Sep-13 08:24N 35°37' E 139°47'0 0.0
2017-Sep-13 07:51N 35°37' E 139°47'0 0.0
2017-Sep-13 07:30N 35°37' E 139°47'0 0.0
2017-Sep-13 06:57N 35°37' E 139°47'0 0.0
2017-Sep-13 06:27N 35°37' E 139°47'0 0.0
2017-Sep-13 05:51N 35°37' E 139°47'0 0.0
2017-Sep-13 05:21N 35°37' E 139°47'0 0.0
2017-Sep-13 04:51N 35°37' E 139°47'0 0.0
2017-Sep-13 04:27N 35°37' E 139°47'0 0.0
2017-Sep-13 03:57N 35°37' E 139°47'0 0.0
2017-Sep-13 03:30N 35°37' E 139°47'0 0.0
2017-Sep-13 02:57N 35°37' E 139°47'0 0.0
2017-Sep-13 02:27N 35°37' E 139°47'0 0.0
2017-Sep-13 01:57N 35°37' E 139°47'0 0.0
2017-Sep-13 01:30N 35°37' E 139°47'0 0.0
2017-Sep-13 01:00N 35°37' E 139°47'0 0.0
2017-Sep-13 00:27N 35°37' E 139°47'0 0.0
2017-Sep-13 00:00N 35°37' E 139°47'0 0.0
2017-Sep-12 20:06N 35°37' E 139°47'0 0.1
2017-Sep-12 20:00N 35°37' E 139°47'0 0.0
2017-Sep-12 19:30N 35°37' E 139°47'0 0.0
2017-Sep-12 18:57N 35°37' E 139°47'0 0.0
2017-Sep-12 18:30N 35°37' E 139°47'0 0.0
2017-Sep-12 18:00N 35°37' E 139°47'0 0.0
2017-Sep-12 17:30N 35°37' E 139°47'0 0.0
2017-Sep-12 17:00N 35°37' E 139°47'0 0.0
2017-Sep-12 16:28N 35°37' E 139°47'0 0.0
2017-Sep-12 15:58N 35°37' E 139°47'0 0.0
2017-Sep-12 15:28N 35°37' E 139°47'0 0.0
2017-Sep-12 14:55N 35°37' E 139°47'0 0.0
2017-Sep-12 14:28N 35°37' E 139°47'0 0.0
2017-Sep-12 13:55N 35°37' E 139°47'0 0.0
2017-Sep-12 13:28N 35°37' E 139°47'0 0.0
2017-Sep-12 12:58N 35°37' E 139°47'0 0.0
2017-Sep-12 12:28N 35°37' E 139°47'0 0.0
2017-Sep-12 11:58N 35°37' E 139°47'0 0.0
2017-Sep-12 11:28N 35°37' E 139°47'0 0.0
2017-Sep-12 10:58N 35°37' E 139°47'0 0.0
2017-Sep-12 10:28N 35°37' E 139°47'0 0.0
2017-Sep-12 09:58N 35°37' E 139°47'0 0.0
2017-Sep-12 09:22N 35°37' E 139°47'0 0.0
2017-Sep-12 08:55N 35°37' E 139°47'0 0.0
2017-Sep-12 08:28N 35°37' E 139°47'0 0.0
2017-Sep-12 07:58N 35°37' E 139°47'0 0.0
2017-Sep-12 07:28N 35°37' E 139°47'0 0.0
2017-Sep-12 06:58N 35°37' E 139°47'0 0.0
2017-Sep-12 06:28N 35°37' E 139°47'0 0.0
2017-Sep-12 05:52N 35°37' E 139°47'0 0.0
2017-Sep-12 05:28N 35°37' E 139°47'0 0.0
2017-Sep-12 04:58N 35°37' E 139°47'0 0.0
2017-Sep-12 04:28N 35°37' E 139°47'0 0.0
2017-Sep-12 03:58N 35°37' E 139°47'0 0.0
2017-Sep-12 03:28N 35°37' E 139°47'0 0.0
2017-Sep-12 02:58N 35°37' E 139°47'0 0.0
2017-Sep-12 01:10N 35°37' E 139°47'0 0.0
2017-Sep-12 00:22N 35°37' E 139°47'0 0.0
2017-Sep-11 23:59N 35°37' E 139°47'1 1.7
2017-Sep-11 23:30N 35°37' E 139°48'510.7
2017-Sep-11 23:00N 35°33' E 139°52'816.5
2017-Sep-11 22:30N 35°25' E 139°47'612.8
2017-Sep-11 22:00N 35°19' E 139°44'612.0
2017-Sep-11 21:30N 35°14' E 139°47'816.6
2017-Sep-11 21:00N 35°06' E 139°45'1019.6
2017-Sep-11 20:30N 34°59' E 139°36'  

Dump ship's entire track history